createdAt,value
2022-11-15T00:00:17.534Z,76.22
2022-11-15T00:01:19.375Z,76.20
2022-11-15T00:01:51.282Z,76.13
2022-11-15T00:02:23.302Z,76.08
2022-11-15T00:02:55.950Z,76.04
2022-11-15T00:03:28.608Z,76.06
2022-11-15T00:04:00.601Z,76.10
2022-11-15T00:04:32.562Z,76.09
2022-11-15T00:05:04.533Z,76.11
2022-11-15T00:05:37.628Z,76.07
2022-11-15T00:06:10.014Z,75.99
2022-11-15T00:06:42.066Z,75.94
2022-11-15T00:07:27.275Z,75.94
2022-11-15T00:08:05.798Z,75.91
2022-11-15T00:08:37.581Z,75.92
2022-11-15T00:09:09.667Z,75.94
2022-11-15T00:09:45.794Z,75.90
2022-11-15T00:10:18.138Z,75.96
2022-11-15T00:10:57.389Z,75.98
2022-11-15T00:11:30.738Z,76.06
2022-11-15T00:12:03.087Z,76.02
2022-11-15T00:12:34.976Z,76.00
2022-11-15T00:13:13.548Z,76.01
2022-11-15T00:13:45.486Z,76.02
2022-11-15T00:14:17.383Z,75.98
2022-11-15T00:14:49.165Z,76.03
2022-11-15T00:15:21.241Z,76.02
2022-11-15T00:15:53.221Z,75.97
2022-11-15T00:16:25.337Z,75.90
2022-11-15T00:16:57.080Z,75.89
2022-11-15T00:17:29.120Z,75.88
2022-11-15T00:18:01.020Z,75.92
2022-11-15T00:18:33.107Z,75.94
2022-11-15T00:19:05.180Z,76.00
2022-11-15T00:19:37.113Z,76.01
2022-11-15T00:20:09.476Z,76.06
2022-11-15T00:20:41.412Z,76.04
2022-11-15T00:21:14.759Z,75.91
2022-11-15T00:21:46.540Z,75.87
2022-11-15T00:22:18.932Z,75.90
2022-11-15T00:22:51.162Z,75.87
2022-11-15T00:23:23.134Z,75.85
2022-11-15T00:23:55.042Z,75.77
2022-11-15T00:24:26.865Z,75.65
2022-11-15T00:24:58.679Z,75.46
2022-11-15T00:25:30.921Z,75.46
2022-11-15T00:26:02.942Z,75.50
2022-11-15T00:26:34.865Z,75.55
2022-11-15T00:27:08.244Z,75.55
2022-11-15T00:27:40.387Z,75.63
2022-11-15T00:28:12.180Z,75.68
2022-11-15T00:28:44.530Z,75.66
2022-11-15T00:29:16.480Z,75.68
2022-11-15T00:29:48.373Z,75.50
2022-11-15T00:30:20.185Z,75.51
2022-11-15T00:30:52.478Z,75.54
2022-11-15T00:31:24.368Z,75.57
2022-11-15T00:31:56.826Z,75.54
2022-11-15T00:32:33.059Z,75.51
2022-11-15T00:33:06.314Z,75.56
2022-11-15T00:33:38.469Z,75.62
2022-11-15T00:34:11.084Z,75.70
2022-11-15T00:34:43.017Z,75.67
2022-11-15T00:35:14.983Z,75.53
2022-11-15T00:35:46.780Z,75.40
2022-11-15T00:36:18.619Z,75.28
2022-11-15T00:36:50.467Z,75.18
2022-11-15T00:37:22.279Z,75.17
2022-11-15T00:37:54.006Z,75.24
2022-11-15T00:38:25.726Z,75.21
2022-11-15T00:38:57.784Z,75.22
2022-11-15T00:39:29.725Z,75.25
2022-11-15T00:40:01.568Z,75.31
2022-11-15T00:40:33.443Z,75.25
2022-11-15T00:41:09.627Z,75.24
2022-11-15T00:41:42.259Z,75.22
2022-11-15T00:42:14.073Z,75.29
2022-11-15T00:42:46.435Z,75.40
2022-11-15T00:43:18.416Z,75.52
2022-11-15T00:43:50.209Z,75.57
2022-11-15T00:44:22.109Z,75.56
2022-11-15T00:44:53.873Z,75.59
2022-11-15T00:45:26.396Z,75.59
2022-11-15T00:45:58.884Z,75.54
2022-11-15T00:46:30.765Z,75.60
2022-11-15T00:47:02.545Z,75.69
2022-11-15T00:47:34.430Z,75.77
2022-11-15T00:48:06.330Z,75.77
2022-11-15T00:48:38.261Z,75.77
2022-11-15T00:49:10.110Z,75.81
2022-11-15T00:49:42.369Z,75.82
2022-11-15T00:50:15.477Z,75.87
2022-11-15T00:50:47.746Z,75.93
2022-11-15T00:51:19.840Z,75.87
2022-11-15T00:51:51.646Z,75.84
2022-11-15T00:52:23.493Z,75.83
2022-11-15T00:52:55.469Z,75.87
2022-11-15T00:53:27.302Z,75.87
2022-11-15T00:53:59.929Z,75.84
2022-11-15T00:54:31.943Z,75.85
2022-11-15T00:55:04.439Z,75.87
2022-11-15T00:55:36.713Z,75.85
2022-11-15T00:56:08.494Z,75.75
2022-11-15T00:56:40.212Z,75.70
2022-11-15T00:57:12.141Z,75.64
2022-11-15T00:57:44.343Z,75.57
2022-11-15T00:58:16.197Z,75.56
2022-11-15T00:58:47.947Z,75.51
2022-11-15T00:59:19.807Z,75.49
2022-11-15T00:59:51.732Z,75.49
2022-11-15T01:00:23.762Z,75.54
2022-11-15T01:00:55.849Z,75.56
2022-11-15T01:01:27.947Z,75.57
2022-11-15T01:01:59.874Z,75.59
2022-11-15T01:02:31.782Z,75.57
2022-11-15T01:03:03.702Z,75.60
2022-11-15T01:03:36.425Z,75.65
2022-11-15T01:04:08.217Z,75.65
2022-11-15T01:04:40.003Z,75.69
2022-11-15T01:05:12.192Z,75.72
2022-11-15T01:05:44.802Z,75.70
2022-11-15T01:06:16.950Z,75.71
2022-11-15T01:06:48.756Z,75.67
2022-11-15T01:07:20.625Z,75.62
2022-11-15T01:07:56.332Z,75.58
2022-11-15T01:08:28.212Z,75.53
2022-11-15T01:08:59.908Z,75.50
2022-11-15T01:09:31.692Z,75.52
2022-11-15T01:10:04.517Z,75.59
2022-11-15T01:10:37.527Z,75.60
2022-11-15T01:11:12.270Z,75.62
2022-11-15T01:11:44.046Z,75.59
2022-11-15T01:12:15.866Z,75.59
2022-11-15T01:12:47.695Z,75.60
2022-11-15T01:13:19.453Z,75.63
2022-11-15T01:13:51.249Z,75.61
2022-11-15T01:14:25.348Z,75.66
2022-11-15T01:14:57.492Z,75.64
2022-11-15T01:15:29.235Z,75.68
2022-11-15T01:16:09.462Z,75.70
2022-11-15T01:16:41.207Z,75.66
2022-11-15T01:17:13.174Z,75.66
2022-11-15T01:17:45.044Z,75.66
2022-11-15T01:18:16.878Z,75.67
2022-11-15T01:18:48.734Z,75.66
2022-11-15T01:19:20.752Z,75.62
2022-11-15T01:19:52.552Z,75.59
2022-11-15T01:20:24.800Z,75.54
2022-11-15T01:20:56.623Z,75.50
2022-11-15T01:21:28.462Z,75.40
2022-11-15T01:22:00.361Z,75.35
2022-11-15T01:22:32.189Z,75.31
2022-11-15T01:23:03.904Z,75.33
2022-11-15T01:23:35.851Z,75.36
2022-11-15T01:24:08.835Z,75.39
2022-11-15T01:24:40.618Z,75.42
2022-11-15T01:25:12.502Z,75.39
2022-11-15T01:25:44.260Z,75.38
2022-11-15T01:26:16.558Z,75.28
2022-11-15T01:26:48.389Z,75.19
2022-11-15T01:27:20.304Z,75.15
2022-11-15T01:27:52.006Z,75.11
2022-11-15T01:28:23.893Z,75.17
2022-11-15T01:28:55.607Z,75.21
2022-11-15T01:29:27.302Z,75.13
2022-11-15T01:29:58.932Z,75.14
2022-11-15T01:30:30.591Z,75.18
2022-11-15T01:31:04.829Z,75.24
2022-11-15T01:31:36.560Z,75.28
2022-11-15T01:32:08.795Z,75.31
2022-11-15T01:32:40.519Z,75.39
2022-11-15T01:33:12.247Z,75.39
2022-11-15T01:33:44.559Z,75.45
2022-11-15T01:34:16.458Z,75.49
2022-11-15T01:34:48.233Z,75.50
2022-11-15T01:35:20.750Z,75.49
2022-11-15T01:35:52.473Z,75.53
2022-11-15T01:36:24.612Z,75.56
2022-11-15T01:36:56.438Z,75.57
2022-11-15T01:37:28.262Z,75.60
2022-11-15T01:38:00.027Z,75.64
2022-11-15T01:38:31.788Z,75.64
2022-11-15T01:39:03.751Z,75.66
2022-11-15T01:39:35.600Z,75.73
2022-11-15T01:40:08.018Z,75.69
2022-11-15T01:40:39.965Z,75.63
2022-11-15T01:41:20.019Z,75.55
2022-11-15T01:41:51.801Z,75.55
2022-11-15T01:42:23.634Z,75.61
2022-11-15T01:42:55.546Z,75.65
2022-11-15T01:43:27.336Z,75.62
2022-11-15T01:44:37.412Z,75.59
2022-11-15T01:45:15.423Z,75.69
2022-11-15T01:45:53.216Z,75.63
2022-11-15T01:46:30.394Z,75.55
2022-11-15T01:47:14.011Z,75.42
2022-11-15T01:47:53.799Z,75.30
2022-11-15T01:48:33.818Z,75.23
2022-11-15T01:49:13.619Z,75.16
2022-11-15T01:50:05.772Z,75.06
2022-11-15T01:50:37.629Z,75.07
2022-11-15T01:51:14.040Z,75.05
2022-11-15T01:51:46.026Z,75.08
2022-11-15T01:52:21.430Z,75.11
2022-11-15T01:52:53.316Z,75.13
2022-11-15T01:53:26.696Z,75.15
2022-11-15T01:54:04.418Z,75.19
2022-11-15T01:54:36.661Z,75.23
2022-11-15T01:55:18.881Z,75.27
2022-11-15T01:55:50.712Z,75.28
2022-11-15T01:56:28.391Z,75.17
2022-11-15T01:57:07.999Z,75.15
2022-11-15T01:57:43.171Z,75.17
2022-11-15T01:58:15.365Z,75.09
2022-11-15T01:58:47.687Z,75.14
2022-11-15T01:59:20.174Z,75.12
2022-11-15T01:59:52.078Z,75.12
2022-11-15T02:00:24.184Z,75.04
2022-11-15T02:00:56.138Z,74.99
2022-11-15T02:01:30.372Z,74.99
2022-11-15T02:02:02.295Z,74.97
2022-11-15T02:02:36.733Z,74.86
2022-11-15T02:03:08.599Z,74.83
2022-11-15T02:03:49.961Z,74.86
2022-11-15T02:04:48.379Z,74.88
2022-11-15T02:05:20.328Z,74.97
2022-11-15T02:05:53.425Z,74.77
2022-11-15T02:06:26.310Z,74.76
2022-11-15T02:07:00.841Z,74.68
2022-11-15T02:07:34.648Z,74.64
2022-11-15T02:08:07.296Z,74.64
2022-11-15T02:08:39.101Z,74.66
2022-11-15T02:09:12.935Z,74.68
2022-11-15T02:09:46.355Z,74.60
2022-11-15T02:10:21.328Z,74.55
2022-11-15T02:10:53.123Z,74.53
2022-11-15T02:11:25.147Z,74.64
2022-11-15T02:11:58.032Z,74.72
2022-11-15T02:12:32.387Z,74.80
2022-11-15T02:13:04.310Z,74.84
2022-11-15T02:13:37.448Z,74.83
2022-11-15T02:14:10.968Z,74.81
2022-11-15T02:14:47.030Z,74.75
2022-11-15T02:15:19.149Z,74.67
2022-11-15T02:16:09.576Z,74.68
2022-11-15T02:17:09.181Z,74.69
2022-11-15T02:18:05.349Z,74.74
2022-11-15T02:18:47.222Z,74.85
2022-11-15T02:20:06.816Z,74.85
2022-11-15T02:20:52.684Z,74.98
2022-11-15T02:22:10.131Z,74.74
2022-11-15T02:22:44.457Z,74.86
2022-11-15T02:23:27.973Z,74.68
2022-11-15T02:24:37.105Z,74.76
2022-11-15T02:25:50.447Z,74.88
2022-11-15T02:27:03.828Z,74.87
2022-11-15T02:27:54.050Z,74.62
2022-11-15T02:28:56.509Z,74.68
2022-11-15T02:29:54.070Z,74.68
2022-11-15T02:30:29.422Z,74.38
2022-11-15T02:31:06.106Z,74.22
2022-11-15T02:31:53.099Z,74.31
2022-11-15T02:32:37.405Z,74.35
2022-11-15T02:33:43.890Z,74.25
2022-11-15T02:34:41.363Z,74.31
2022-11-15T02:35:39.316Z,74.46
2022-11-15T02:36:19.188Z,74.42
2022-11-15T02:37:03.284Z,74.38
2022-11-15T02:37:39.893Z,74.44
2022-11-15T02:38:46.986Z,74.31
2022-11-15T02:39:32.310Z,74.33
2022-11-15T02:40:23.951Z,74.31
2022-11-15T02:41:07.492Z,74.28
2022-11-15T02:41:54.597Z,74.34
2022-11-15T02:42:50.501Z,74.35
2022-11-15T02:43:49.884Z,74.45
2022-11-15T02:44:32.762Z,74.62
2022-11-15T02:45:08.191Z,74.77
2022-11-15T02:45:48.998Z,74.82
2022-11-15T02:46:45.075Z,74.83
2022-11-15T02:47:18.238Z,74.93
2022-11-15T02:47:52.646Z,74.86
2022-11-15T02:48:26.629Z,74.95
2022-11-15T02:48:58.550Z,74.98
2022-11-15T02:49:33.338Z,75.07
2022-11-15T02:50:09.477Z,75.14
2022-11-15T02:50:41.786Z,75.12
2022-11-15T02:51:14.308Z,75.18
2022-11-15T02:51:50.277Z,75.24
2022-11-15T02:52:25.786Z,75.23
2022-11-15T02:52:57.746Z,75.25
2022-11-15T02:53:29.892Z,75.28
2022-11-15T02:54:01.817Z,75.34
2022-11-15T02:54:35.265Z,75.37
2022-11-15T02:55:27.767Z,75.32
2022-11-15T02:55:59.548Z,75.34
2022-11-15T02:56:31.667Z,75.22
2022-11-15T02:57:16.706Z,75.14
2022-11-15T02:58:33.362Z,74.96
2022-11-15T02:59:05.242Z,75.10
2022-11-15T03:00:02.164Z,75.10
2022-11-15T03:00:46.439Z,75.21
2022-11-15T03:02:04.498Z,75.27
2022-11-15T03:03:00.549Z,75.33
2022-11-15T03:03:35.252Z,75.17
2022-11-15T03:04:13.109Z,75.16
2022-11-15T03:04:56.441Z,75.13
2022-11-15T03:05:41.654Z,75.04
2022-11-15T03:06:38.393Z,74.90
2022-11-15T03:07:30.738Z,74.96
2022-11-15T03:08:08.310Z,75.11
2022-11-15T03:08:52.460Z,75.11
2022-11-15T03:09:59.347Z,75.03
2022-11-15T03:10:50.485Z,75.14
2022-11-15T03:11:23.438Z,75.25
2022-11-15T03:12:07.160Z,75.24
2022-11-15T03:12:49.752Z,75.19
2022-11-15T03:13:37.164Z,75.15
2022-11-15T03:14:14.925Z,75.19
2022-11-15T03:14:59.066Z,75.22
2022-11-15T03:15:37.527Z,75.21
2022-11-15T03:16:17.620Z,75.20
2022-11-15T03:17:01.199Z,75.23
2022-11-15T03:17:46.373Z,75.26
2022-11-15T03:18:30.828Z,75.25
2022-11-15T03:19:39.027Z,75.21
2022-11-15T03:20:14.390Z,75.27
2022-11-15T03:20:48.068Z,75.17
2022-11-15T03:21:22.280Z,75.17
2022-11-15T03:21:56.654Z,75.13
2022-11-15T03:22:33.933Z,75.14
2022-11-15T03:23:09.987Z,75.15
2022-11-15T03:23:42.204Z,75.19
2022-11-15T03:24:18.159Z,75.25
2022-11-15T03:25:00.464Z,75.19
2022-11-15T03:25:35.140Z,75.20
2022-11-15T03:26:12.519Z,75.23
2022-11-15T03:26:46.452Z,75.23
2022-11-15T03:27:23.182Z,75.22
2022-11-15T03:27:59.062Z,75.25
2022-11-15T03:29:03.750Z,75.25
2022-11-15T03:29:42.769Z,75.28
2022-11-15T03:30:15.204Z,75.20
2022-11-15T03:30:50.211Z,75.14
2022-11-15T03:31:49.615Z,75.14
2022-11-15T03:32:29.228Z,75.07
2022-11-15T03:33:03.407Z,75.01
2022-11-15T03:33:35.466Z,74.93
2022-11-15T03:34:11.764Z,74.93
2022-11-15T03:35:01.822Z,74.85
2022-11-15T03:35:43.123Z,74.64
2022-11-15T03:36:16.052Z,74.75
2022-11-15T03:36:50.510Z,74.80
2022-11-15T03:37:28.190Z,74.80
2022-11-15T03:38:06.172Z,74.85
2022-11-15T03:38:39.242Z,74.90
2022-11-15T03:39:19.179Z,74.94
2022-11-15T03:39:52.546Z,74.96
2022-11-15T03:40:53.600Z,74.96
2022-11-15T03:41:47.375Z,75.08
2022-11-15T03:42:40.244Z,75.13
2022-11-15T03:43:30.489Z,75.09
2022-11-15T03:44:14.479Z,75.02
2022-11-15T03:44:59.900Z,74.91
2022-11-15T03:45:47.216Z,74.73
2022-11-15T03:46:31.591Z,74.62
2022-11-15T03:47:16.193Z,74.74
2022-11-15T03:48:03.107Z,74.78
2022-11-15T03:48:40.297Z,74.83
2022-11-15T03:49:20.986Z,74.78
2022-11-15T03:50:08.243Z,74.80
2022-11-15T03:50:42.154Z,74.86
2022-11-15T03:51:14.701Z,74.85
2022-11-15T03:51:46.834Z,74.88
2022-11-15T03:52:20.842Z,74.87
2022-11-15T03:52:55.129Z,74.93
2022-11-15T03:53:28.949Z,75.04
2022-11-15T03:54:04.529Z,75.04
2022-11-15T03:54:36.212Z,75.00
2022-11-15T03:55:13.834Z,75.00
2022-11-15T03:55:45.763Z,75.05
2022-11-15T03:56:17.485Z,75.04
2022-11-15T03:56:49.310Z,75.03
2022-11-15T03:57:21.777Z,75.08
2022-11-15T03:57:59.590Z,75.17
2022-11-15T03:58:31.294Z,75.22
2022-11-15T03:59:03.052Z,75.22
2022-11-15T03:59:34.888Z,75.12
2022-11-15T04:00:07.270Z,75.03
2022-11-15T04:00:39.136Z,75.08
2022-11-15T04:01:11.197Z,75.08
2022-11-15T04:01:43.158Z,74.98
2022-11-15T04:02:16.010Z,75.04
2022-11-15T04:02:47.958Z,75.03
2022-11-15T04:03:19.902Z,75.02
2022-11-15T04:03:51.679Z,75.08
2022-11-15T04:04:23.624Z,75.14
2022-11-15T04:04:55.653Z,75.18
2022-11-15T04:05:27.472Z,75.18
2022-11-15T04:05:59.238Z,75.20
2022-11-15T04:06:31.108Z,75.19
2022-11-15T04:07:03.487Z,75.23
2022-11-15T04:07:35.307Z,75.16
2022-11-15T04:08:07.371Z,75.13
2022-11-15T04:08:39.176Z,75.12
2022-11-15T04:09:11.176Z,75.12
2022-11-15T04:10:01.318Z,75.04
2022-11-15T04:10:33.148Z,74.77
2022-11-15T04:11:04.866Z,74.78
2022-11-15T04:11:36.717Z,74.80
2022-11-15T04:12:08.521Z,74.82
2022-11-15T04:12:43.992Z,74.87
2022-11-15T04:13:15.733Z,74.95
2022-11-15T04:13:47.596Z,75.02
2022-11-15T04:14:19.422Z,75.08
2022-11-15T04:15:07.506Z,75.14
2022-11-15T04:15:39.400Z,75.12
2022-11-15T04:16:11.303Z,75.23
2022-11-15T04:16:44.169Z,75.30
2022-11-15T04:17:16.036Z,75.32
2022-11-15T04:17:55.740Z,75.37
2022-11-15T04:18:27.733Z,75.39
2022-11-15T04:19:18.000Z,75.43
2022-11-15T04:20:08.281Z,75.45
2022-11-15T04:20:58.931Z,75.45
2022-11-15T04:21:49.308Z,75.44
2022-11-15T04:22:39.576Z,75.43
2022-11-15T04:23:33.670Z,75.27
2022-11-15T04:24:06.037Z,75.08
2022-11-15T04:24:37.916Z,74.97
2022-11-15T04:25:09.829Z,74.95
2022-11-15T04:25:43.146Z,74.90
2022-11-15T04:26:21.482Z,74.94
2022-11-15T04:26:53.442Z,74.98
2022-11-15T04:27:25.315Z,75.05
2022-11-15T04:27:57.142Z,75.09
2022-11-15T04:28:29.432Z,75.12
2022-11-15T04:29:19.696Z,75.18
2022-11-15T04:29:51.522Z,75.24
2022-11-15T04:30:23.286Z,75.29
2022-11-15T04:30:55.588Z,75.30
2022-11-15T04:31:27.968Z,75.41
2022-11-15T04:31:59.837Z,75.42
2022-11-15T04:32:31.828Z,75.37
2022-11-15T04:33:04.126Z,75.33
2022-11-15T04:33:36.024Z,75.32
2022-11-15T04:34:07.893Z,75.28
2022-11-15T04:34:39.674Z,75.23
2022-11-15T04:35:12.319Z,75.23
2022-11-15T04:35:44.231Z,75.22
2022-11-15T04:36:34.346Z,75.23
2022-11-15T04:37:12.335Z,75.29
2022-11-15T04:37:49.057Z,75.35
2022-11-15T04:38:21.152Z,75.33
2022-11-15T04:38:53.121Z,75.25
2022-11-15T04:39:24.918Z,75.22
2022-11-15T04:39:56.620Z,75.19
2022-11-15T04:40:28.604Z,75.17
2022-11-15T04:41:00.891Z,75.20
2022-11-15T04:41:32.827Z,75.22
2022-11-15T04:42:04.777Z,75.25
2022-11-15T04:42:36.469Z,75.29
2022-11-15T04:43:08.252Z,75.30
2022-11-15T04:43:40.389Z,75.24
2022-11-15T04:44:12.673Z,75.18
2022-11-15T04:44:44.546Z,75.19
2022-11-15T04:45:16.570Z,75.13
2022-11-15T04:45:48.381Z,75.03
2022-11-15T04:46:20.122Z,75.05
2022-11-15T04:46:52.046Z,75.05
2022-11-15T04:47:23.950Z,75.05
2022-11-15T04:47:55.776Z,75.07
2022-11-15T04:48:27.767Z,74.98
2022-11-15T04:48:59.742Z,74.98
2022-11-15T04:49:31.702Z,74.97
2022-11-15T04:50:03.901Z,74.88
2022-11-15T04:50:35.580Z,74.92
2022-11-15T04:51:07.494Z,74.98
2022-11-15T04:51:39.417Z,75.02
2022-11-15T04:52:11.301Z,75.01
2022-11-15T04:52:51.019Z,74.96
2022-11-15T04:53:22.773Z,74.95
2022-11-15T04:53:54.734Z,75.00
2022-11-15T04:54:26.594Z,75.00
2022-11-15T04:54:59.760Z,75.01
2022-11-15T04:55:33.210Z,75.06
2022-11-15T04:56:05.126Z,75.10
2022-11-15T04:56:37.109Z,75.10
2022-11-15T04:57:08.970Z,75.07
2022-11-15T04:57:40.844Z,75.00
2022-11-15T04:58:12.706Z,74.97
2022-11-15T04:58:44.538Z,74.87
2022-11-15T04:59:16.420Z,74.89
2022-11-15T04:59:48.220Z,74.81
2022-11-15T05:00:20.004Z,74.80
2022-11-15T05:00:51.955Z,74.87
2022-11-15T05:01:24.030Z,74.85
2022-11-15T05:01:56.103Z,74.82
2022-11-15T05:02:47.982Z,74.79
2022-11-15T05:03:38.009Z,74.90
2022-11-15T05:04:22.200Z,74.82
2022-11-15T05:04:54.061Z,74.76
2022-11-15T05:05:26.008Z,74.68
2022-11-15T05:05:58.250Z,74.68
2022-11-15T05:06:30.439Z,74.69
2022-11-15T05:07:02.740Z,74.64
2022-11-15T05:07:35.444Z,74.56
2022-11-15T05:08:07.879Z,74.53
2022-11-15T05:08:39.612Z,74.54
2022-11-15T05:09:13.520Z,74.56
2022-11-15T05:09:45.314Z,74.59
2022-11-15T05:10:17.680Z,74.58
2022-11-15T05:10:49.415Z,74.56
2022-11-15T05:11:21.753Z,74.49
2022-11-15T05:11:53.620Z,74.39
2022-11-15T05:12:25.459Z,74.31
2022-11-15T05:12:57.362Z,74.36
2022-11-15T05:13:29.489Z,74.35
2022-11-15T05:14:01.603Z,74.33
2022-11-15T05:14:33.624Z,74.34
2022-11-15T05:15:06.002Z,74.19
2022-11-15T05:15:37.826Z,74.16
2022-11-15T05:16:09.667Z,74.20
2022-11-15T05:16:42.381Z,74.01
2022-11-15T05:17:14.169Z,74.03
2022-11-15T05:17:46.050Z,73.86
2022-11-15T05:18:23.138Z,73.85
2022-11-15T05:18:55.590Z,73.95
2022-11-15T05:19:27.403Z,74.00
2022-11-15T05:19:59.190Z,73.91
2022-11-15T05:20:31.084Z,73.88
2022-11-15T05:21:12.823Z,73.91
2022-11-15T05:21:44.537Z,74.04
2022-11-15T05:22:16.453Z,73.96
2022-11-15T05:22:48.423Z,73.92
2022-11-15T05:23:20.110Z,74.03
2022-11-15T05:23:52.037Z,74.09
2022-11-15T05:24:23.932Z,74.18
2022-11-15T05:24:55.771Z,74.21
2022-11-15T05:25:27.695Z,74.25
2022-11-15T05:26:06.450Z,74.27
2022-11-15T05:26:40.719Z,74.34
2022-11-15T05:27:12.710Z,74.23
2022-11-15T05:27:44.441Z,74.27
2022-11-15T05:28:16.347Z,74.19
2022-11-15T05:28:54.275Z,74.21
2022-11-15T05:29:26.102Z,74.21
2022-11-15T05:29:57.742Z,74.04
2022-11-15T05:30:30.517Z,73.82
2022-11-15T05:31:11.702Z,73.83
2022-11-15T05:31:43.611Z,73.81
2022-11-15T05:32:18.518Z,73.88
2022-11-15T05:32:51.209Z,73.91
2022-11-15T05:33:24.496Z,74.00
2022-11-15T05:33:57.188Z,74.04
2022-11-15T05:34:28.982Z,74.06
2022-11-15T05:35:00.627Z,74.12
2022-11-15T05:35:39.416Z,74.16
2022-11-15T05:36:26.253Z,74.16
2022-11-15T05:36:58.823Z,74.23
2022-11-15T05:37:31.025Z,74.24
2022-11-15T05:38:03.656Z,74.19
2022-11-15T05:38:35.571Z,74.17
2022-11-15T05:39:09.289Z,74.13
2022-11-15T05:39:41.512Z,73.97
2022-11-15T05:40:13.489Z,73.88
2022-11-15T05:40:45.298Z,73.85
2022-11-15T05:41:21.355Z,73.87
2022-11-15T05:42:00.013Z,73.87
2022-11-15T05:42:31.836Z,73.88
2022-11-15T05:43:05.117Z,73.84
2022-11-15T05:43:39.773Z,73.74
2022-11-15T05:44:15.329Z,73.65
2022-11-15T05:44:49.686Z,73.46
2022-11-15T05:45:26.543Z,73.47
2022-11-15T05:46:00.429Z,73.29
2022-11-15T05:46:33.900Z,73.34
2022-11-15T05:47:09.841Z,73.37
2022-11-15T05:47:42.346Z,73.42
2022-11-15T05:48:15.176Z,73.42
2022-11-15T05:48:50.869Z,73.36
2022-11-15T05:49:26.567Z,73.42
2022-11-15T05:49:58.708Z,73.40
2022-11-15T05:50:31.203Z,73.49
2022-11-15T05:51:05.187Z,73.59
2022-11-15T05:51:37.275Z,73.62
2022-11-15T05:52:12.741Z,73.55
2022-11-15T05:52:46.540Z,73.46
2022-11-15T05:53:23.593Z,73.47
2022-11-15T05:53:58.804Z,73.50
2022-11-15T05:54:32.784Z,73.41
2022-11-15T05:55:06.682Z,73.49
2022-11-15T05:55:39.790Z,73.59
2022-11-15T05:56:13.006Z,73.63
2022-11-15T05:56:44.841Z,73.69
2022-11-15T05:57:18.050Z,73.74
2022-11-15T05:57:50.396Z,73.70
2022-11-15T05:58:22.837Z,73.74
2022-11-15T05:58:59.661Z,73.72
2022-11-15T05:59:33.886Z,73.72
2022-11-15T06:00:06.642Z,73.75
2022-11-15T06:00:38.957Z,73.60
2022-11-15T06:01:11.348Z,73.57
2022-11-15T06:01:43.333Z,73.54
2022-11-15T06:02:15.303Z,73.48
2022-11-15T06:02:47.161Z,73.45
2022-11-15T06:03:18.976Z,73.41
2022-11-15T06:03:50.804Z,73.26
2022-11-15T06:04:23.002Z,73.23
2022-11-15T06:04:54.890Z,73.20
2022-11-15T06:05:26.676Z,73.24
2022-11-15T06:05:58.621Z,73.27
2022-11-15T06:06:30.597Z,73.35
2022-11-15T06:07:02.728Z,73.40
2022-11-15T06:07:34.631Z,73.32
2022-11-15T06:08:06.723Z,73.38
2022-11-15T06:08:38.585Z,73.31
2022-11-15T06:09:10.664Z,73.33
2022-11-15T06:09:42.654Z,73.23
2022-11-15T06:10:14.573Z,73.20
2022-11-15T06:10:46.420Z,73.10
2022-11-15T06:11:18.345Z,73.11
2022-11-15T06:11:50.523Z,73.19
2022-11-15T06:12:22.715Z,73.29
2022-11-15T06:12:59.301Z,73.31
2022-11-15T06:13:31.529Z,73.08
2022-11-15T06:14:03.791Z,72.97
2022-11-15T06:14:35.795Z,72.96
2022-11-15T06:15:08.305Z,73.07
2022-11-15T06:15:40.072Z,73.16
2022-11-15T06:16:11.920Z,73.11
2022-11-15T06:16:44.762Z,72.94
2022-11-15T06:17:16.732Z,73.04
2022-11-15T06:17:48.963Z,73.05
2022-11-15T06:18:20.837Z,73.16
2022-11-15T06:18:52.674Z,73.24
2022-11-15T06:19:24.530Z,73.15
2022-11-15T06:19:56.379Z,72.99
2022-11-15T06:20:30.195Z,72.78
2022-11-15T06:21:02.415Z,72.76
2022-11-15T06:21:34.295Z,72.89
2022-11-15T06:22:06.085Z,72.91
2022-11-15T06:22:37.886Z,72.96
2022-11-15T06:23:09.871Z,73.05
2022-11-15T06:23:41.812Z,72.92
2022-11-15T06:24:13.642Z,72.87
2022-11-15T06:24:45.912Z,72.75
2022-11-15T06:25:17.750Z,72.72
2022-11-15T06:25:49.753Z,72.85
2022-11-15T06:26:21.649Z,72.90
2022-11-15T06:26:54.239Z,72.94
2022-11-15T06:27:26.161Z,72.99
2022-11-15T06:27:59.455Z,73.05
2022-11-15T06:28:32.667Z,73.15
2022-11-15T06:29:05.064Z,73.15
2022-11-15T06:29:36.857Z,73.15
2022-11-15T06:30:09.208Z,73.16
2022-11-15T06:30:41.016Z,73.19
2022-11-15T06:31:12.918Z,73.19
2022-11-15T06:31:44.806Z,73.20
2022-11-15T06:32:16.747Z,73.24
2022-11-15T06:32:48.674Z,73.19
2022-11-15T06:33:20.647Z,73.05
2022-11-15T06:33:52.643Z,73.01
2022-11-15T06:34:25.300Z,73.09
2022-11-15T06:34:57.739Z,73.17
2022-11-15T06:35:32.047Z,73.33
2022-11-15T06:36:06.376Z,73.37
2022-11-15T06:36:38.316Z,73.39
2022-11-15T06:37:10.257Z,73.35
2022-11-15T06:37:43.059Z,73.43
2022-11-15T06:38:14.748Z,73.54
2022-11-15T06:38:47.045Z,73.59
2022-11-15T06:39:18.904Z,73.63
2022-11-15T06:39:50.757Z,73.51
2022-11-15T06:40:22.851Z,73.44
2022-11-15T06:40:54.575Z,73.53
2022-11-15T06:41:26.525Z,73.53
2022-11-15T06:41:58.455Z,73.60
2022-11-15T06:42:30.396Z,73.62
2022-11-15T06:43:03.779Z,73.61
2022-11-15T06:43:36.403Z,73.53
2022-11-15T06:44:08.204Z,73.24
2022-11-15T06:44:40.099Z,73.22
2022-11-15T06:45:11.959Z,73.34
2022-11-15T06:45:43.716Z,73.39
2022-11-15T06:46:15.413Z,73.41
2022-11-15T06:46:47.201Z,73.36
2022-11-15T06:47:19.158Z,73.40
2022-11-15T06:47:51.071Z,73.33
2022-11-15T06:48:22.785Z,73.27
2022-11-15T06:48:54.689Z,73.33
2022-11-15T06:49:26.552Z,73.37
2022-11-15T06:49:58.395Z,73.33
2022-11-15T06:50:30.205Z,73.36
2022-11-15T06:51:03.425Z,73.46
2022-11-15T06:51:35.214Z,73.55
2022-11-15T06:52:07.151Z,73.52
2022-11-15T06:52:38.946Z,73.55
2022-11-15T06:53:10.740Z,73.55
2022-11-15T06:53:42.470Z,73.63
2022-11-15T06:54:14.421Z,73.64
2022-11-15T06:54:46.297Z,73.58
2022-11-15T06:55:18.494Z,73.48
2022-11-15T06:55:55.048Z,73.41
2022-11-15T06:56:27.443Z,73.34
2022-11-15T06:56:59.368Z,73.33
2022-11-15T06:57:32.805Z,73.40
2022-11-15T06:58:04.747Z,73.42
2022-11-15T06:58:36.844Z,73.47
2022-11-15T06:59:08.619Z,73.51
2022-11-15T06:59:40.954Z,73.51
2022-11-15T07:00:13.517Z,73.28
2022-11-15T07:00:45.317Z,73.29
2022-11-15T07:01:17.491Z,73.19
2022-11-15T07:01:50.185Z,73.01
2022-11-15T07:02:22.114Z,72.60
2022-11-15T07:02:53.977Z,72.65
2022-11-15T07:03:26.495Z,72.71
2022-11-15T07:03:58.383Z,72.79
2022-11-15T07:04:30.323Z,72.89
2022-11-15T07:05:02.113Z,73.01
2022-11-15T07:05:34.286Z,72.90
2022-11-15T07:06:07.707Z,72.97
2022-11-15T07:06:39.753Z,72.96
2022-11-15T07:07:12.330Z,72.84
2022-11-15T07:07:51.037Z,72.67
2022-11-15T07:08:25.141Z,72.82
2022-11-15T07:08:57.274Z,72.91
2022-11-15T07:09:29.136Z,73.00
2022-11-15T07:10:01.050Z,73.08
2022-11-15T07:10:32.924Z,73.14
2022-11-15T07:11:07.152Z,73.17
2022-11-15T07:11:38.947Z,73.22
2022-11-15T07:12:10.674Z,73.17
2022-11-15T07:12:42.540Z,73.16
2022-11-15T07:13:14.520Z,73.17
2022-11-15T07:13:46.420Z,73.15
2022-11-15T07:14:18.161Z,73.19
2022-11-15T07:14:49.932Z,73.10
2022-11-15T07:15:24.611Z,73.08
2022-11-15T07:15:56.467Z,73.13
2022-11-15T07:16:28.313Z,73.07
2022-11-15T07:17:00.221Z,72.91
2022-11-15T07:17:32.456Z,72.93
2022-11-15T07:18:04.491Z,72.95
2022-11-15T07:18:38.236Z,72.98
2022-11-15T07:19:10.577Z,72.93
2022-11-15T07:19:42.335Z,72.97
2022-11-15T07:20:14.437Z,72.99
2022-11-15T07:20:46.427Z,72.99
2022-11-15T07:21:19.101Z,72.88
2022-11-15T07:21:52.252Z,72.95
2022-11-15T07:22:23.929Z,72.96
2022-11-15T07:23:03.940Z,72.97
2022-11-15T07:23:40.078Z,72.85
2022-11-15T07:24:11.997Z,72.78
2022-11-15T07:24:43.705Z,72.72
2022-11-15T07:25:15.712Z,72.59
2022-11-15T07:25:47.605Z,72.60
2022-11-15T07:26:19.477Z,72.55
2022-11-15T07:26:51.364Z,72.44
2022-11-15T07:27:23.340Z,72.26
2022-11-15T07:27:59.858Z,72.14
2022-11-15T07:28:32.032Z,72.20
2022-11-15T07:29:04.011Z,72.19
2022-11-15T07:29:36.171Z,72.28
2022-11-15T07:30:08.489Z,72.41
2022-11-15T07:30:45.070Z,72.47
2022-11-15T07:31:17.301Z,72.59
2022-11-15T07:31:50.995Z,72.51
2022-11-15T07:32:23.167Z,72.52
2022-11-15T07:32:55.079Z,72.52